Time;durP1;ratioP1;P1;durP2;ratioP2;P2;SDS_P1;SDS_P2;PMS_P1;PMS_P2;Temp;Humidity;BMP_temperature;BMP_pressure;BME280_temperature;BME280_humidity;BME280_pressure;Samples;Min_cycle;Max_cycle;Signal;HPM_P1;HPM_P2
2021/10/30 00:01:38;;;;;;;0.10;0.10;;;11.80;99.90;;;;;;6273962;22;20019;-82
2021/10/30 00:04:05;;;;;;;0.00;0.00;;;11.80;99.90;;;;;;6298788;22;20020;-83
2021/10/30 00:06:31;;;;;;;0.03;0.03;;;11.80;99.90;;;;;;6298295;22;20019;-83
2021/10/30 00:08:58;;;;;;;0.00;0.00;;;11.80;99.90;;;;;;6299213;22;20015;-83
2021/10/30 00:11:25;;;;;;;0.00;0.00;;;11.80;99.90;;;;;;6273320;22;20015;-83
2021/10/30 00:13:51;;;;;;;0.00;0.00;;;11.70;99.90;;;;;;6273894;22;20019;-83
2021/10/30 00:16:19;;;;;;;0.10;0.10;;;11.70;99.90;;;;;;6248172;22;20022;-83
2021/10/30 00:18:46;;;;;;;0.00;0.00;;;11.60;99.90;;;;;;6274069;22;20321;-83
2021/10/30 00:21:12;;;;;;;0.00;0.00;;;11.60;99.90;;;;;;6273467;22;20030;-83
2021/10/30 00:23:39;;;;;;;0.00;0.00;;;11.60;99.90;;;;;;6248638;22;20348;-83
2021/10/30 00:26:07;;;;;;;0.03;0.03;;;11.50;99.90;;;;;;6248645;22;20011;-83
2021/10/30 00:28:33;;;;;;;0.00;0.00;;;11.50;99.90;;;;;;6248308;22;20018;-83
2021/10/30 00:31:00;;;;;;;0.00;0.00;;;11.50;99.90;;;;;;6248716;22;20011;-83
2021/10/30 00:33:27;;;;;;;0.00;0.00;;;11.40;99.90;;;;;;6248490;22;20011;-83
2021/10/30 00:35:53;;;;;;;0.13;0.03;;;11.40;99.90;;;;;;6273689;22;20011;-83
2021/10/30 00:38:20;;;;;;;0.00;0.00;;;11.40;99.90;;;;;;6298691;22;20013;-83
2021/10/30 00:40:49;;;;;;;0.00;0.00;;;11.30;99.90;;;;;;6273619;22;20015;-83
2021/10/30 00:43:16;;;;;;;0.13;0.10;;;11.30;99.90;;;;;;6298342;22;20070;-83
2021/10/30 00:45:47;;;;;;;0.30;0.30;;;11.30;99.90;;;;;;6273661;22;20027;-83
2021/10/30 00:48:15;;;;;;;0.00;0.00;;;11.30;99.90;;;;;;6298011;22;20015;-82
2021/10/30 00:50:43;;;;;;;0.00;0.00;;;11.30;99.90;;;;;;6298771;22;20459;-82
2021/10/30 00:53:11;;;;;;;0.00;0.00;;;11.20;99.90;;;;;;6298400;22;20015;-83
2021/10/30 00:55:41;;;;;;;0.00;0.00;;;11.20;99.90;;;;;;6273211;22;20065;-83
2021/10/30 00:58:09;;;;;;;0.00;0.00;;;11.10;99.90;;;;;;6298700;22;20019;-83
2021/10/30 01:00:36;;;;;;;0.10;0.10;;;11.10;99.90;;;;;;6248086;22;20019;-83
2021/10/30 01:03:04;;;;;;;0.00;0.00;;;11.10;99.90;;;;;;6324473;22;20019;-83
2021/10/30 01:05:31;;;;;;;0.00;0.00;;;11.00;99.90;;;;;;6298242;22;20596;-83
2021/10/30 01:07:58;;;;;;;0.10;0.10;;;11.00;99.90;;;;;;6323922;22;20015;-83
2021/10/30 01:10:25;;;;;;;0.00;0.00;;;11.00;99.90;;;;;;6297956;22;20015;-83
2021/10/30 01:12:52;;;;;;;0.03;0.00;;;10.90;99.90;;;;;;6324092;22;20007;-83
2021/10/30 01:15:19;;;;;;;0.00;0.00;;;10.90;99.90;;;;;;6323592;22;20076;-83
2021/10/30 01:17:45;;;;;;;0.52;0.22;;;10.90;99.90;;;;;;6298543;22;20015;-82
2021/10/30 01:20:20;;;;;;;0.00;0.00;;;10.90;99.90;;;;;;6248069;22;20020;-82
2021/10/30 01:22:46;;;;;;;0.00;0.00;;;10.90;99.90;;;;;;6298007;22;20015;-81
2021/10/30 01:25:19;;;;;;;0.00;0.00;;;10.80;99.90;;;;;;6323381;22;20026;-81
2021/10/30 01:27:46;;;;;;;0.10;0.10;;;10.80;99.90;;;;;;6298167;22;20113;-81
2021/10/30 01:30:18;;;;;;;0.00;0.00;;;10.80;99.90;;;;;;6273149;22;20021;-81
2021/10/30 01:33:05;;;;;;;0.00;0.00;;;10.80;99.90;;;;;;6247721;22;20069;-81
2021/10/30 01:35:38;;;;;;;0.00;0.00;;;10.70;99.90;;;;;;6297915;22;20348;-81
2021/10/30 01:38:05;;;;;;;0.00;0.00;;;10.70;99.90;;;;;;6298282;22;20015;-81
2021/10/30 01:40:38;;;;;;;0.00;0.00;;;10.70;99.90;;;;;;6272753;22;20511;-81
2021/10/30 01:43:05;;;;;;;0.00;0.00;;;10.60;99.90;;;;;;6298368;22;20448;-81
2021/10/30 01:45:32;;;;;;;0.00;0.00;;;10.60;99.90;;;;;;6297748;22;20061;-81
2021/10/30 01:47:59;;;;;;;0.10;0.10;;;10.60;99.90;;;;;;6323307;22;20086;-81
2021/10/30 01:50:27;;;;;;;0.00;0.00;;;10.50;99.90;;;;;;6297823;22;20015;-82
2021/10/30 01:52:54;;;;;;;0.00;0.00;;;10.60;99.90;;;;;;6273017;22;20046;-81
2021/10/30 01:55:21;;;;;;;0.00;0.00;;;10.50;99.90;;;;;;6272874;22;20379;-81
2021/10/30 01:57:50;;;;;;;0.10;0.10;;;10.40;99.90;;;;;;6297961;22;20096;-81
2021/10/30 02:00:18;;;;;;;0.00;0.00;;;10.50;99.90;;;;;;6248158;22;20019;-81
2021/10/30 02:02:45;;;;;;;0.00;0.00;;;10.40;99.90;;;;;;6297536;22;20460;-81
2021/10/30 02:05:13;;;;;;;0.00;0.00;;;10.40;99.90;;;;;;6323353;22;20086;-81
2021/10/30 02:07:40;;;;;;;0.00;0.00;;;10.40;99.90;;;;;;6297626;22;20015;-81
2021/10/30 02:10:10;;;;;;;0.00;0.00;;;10.30;99.90;;;;;;6297931;22;20022;-81
2021/10/30 02:12:37;;;;;;;0.00;0.00;;;10.30;99.90;;;;;;6297266;22;20098;-81
2021/10/30 02:15:05;;;;;;;0.00;0.00;;;10.30;99.90;;;;;;6298046;22;20015;-81
2021/10/30 02:17:33;;;;;;;0.10;0.10;;;10.30;99.90;;;;;;6247623;22;20015;-81
2021/10/30 02:20:00;;;;;;;0.00;0.00;;;10.30;99.90;;;;;;6297658;22;20085;-81
2021/10/30 02:22:27;;;;;;;0.00;0.00;;;10.20;99.90;;;;;;6297199;22;20026;-81
2021/10/30 02:24:53;;;;;;;0.08;0.08;;;10.20;99.90;;;;;;6297539;22;20016;-81
2021/10/30 02:27:20;;;;;;;0.00;0.00;;;10.20;99.90;;;;;;6272427;22;20015;-81
2021/10/30 02:29:47;;;;;;;0.00;0.00;;;10.10;99.90;;;;;;6272093;22;20017;-81
2021/10/30 02:32:14;;;;;;;0.00;0.00;;;10.20;99.90;;;;;;6272505;22;20015;-81
2021/10/30 02:34:41;;;;;;;0.00;0.00;;;10.10;99.90;;;;;;6247196;22;20073;-81
2021/10/30 02:37:09;;;;;;;0.00;0.00;;;10.10;99.90;;;;;;6297687;22;20019;-81
2021/10/30 02:39:36;;;;;;;0.00;0.00;;;10.10;99.90;;;;;;6322774;22;20015;-81
2021/10/30 02:42:03;;;;;;;0.00;0.00;;;10.10;99.90;;;;;;6272578;22;20102;-81
2021/10/30 02:44:31;;;;;;;0.00;0.00;;;10.00;99.90;;;;;;6297259;22;20019;-81
2021/10/30 02:46:58;;;;;;;0.00;0.00;;;10.00;99.90;;;;;;6323330;22;20012;-81
2021/10/30 02:49:25;;;;;;;0.00;0.00;;;10.00;99.90;;;;;;6226504;22;20019;-81
2021/10/30 02:51:51;;;;;;;0.00;0.00;;;9.90;99.90;;;;;;6241635;22;20012;-81
2021/10/30 02:54:18;;;;;;;0.30;0.30;;;9.90;99.90;;;;;;6242142;22;20019;-81
2021/10/30 02:56:45;;;;;;;0.10;0.10;;;9.90;99.90;;;;;;6216644;22;20016;-81
2021/10/30 02:59:11;;;;;;;0.00;0.00;;;9.90;99.90;;;;;;6241820;22;20019;-81
2021/10/30 03:01:38;;;;;;;0.00;0.00;;;9.90;99.90;;;;;;6216616;22;20020;-81
2021/10/30 03:04:05;;;;;;;0.08;0.08;;;9.90;99.90;;;;;;6266735;22;20020;-81
2021/10/30 03:06:32;;;;;;;0.10;0.10;;;10.00;99.90;;;;;;6241773;22;20023;-81
2021/10/30 03:08:59;;;;;;;0.00;0.00;;;9.80;99.90;;;;;;6216997;22;20016;-81
2021/10/30 03:11:26;;;;;;;0.00;0.00;;;9.90;99.90;;;;;;6217413;22;20314;-81
2021/10/30 03:13:52;;;;;;;0.00;0.00;;;9.80;99.90;;;;;;6266627;22;20027;-81
2021/10/30 03:16:19;;;;;;;0.10;0.10;;;9.80;99.90;;;;;;6266444;22;20022;-81
2021/10/30 03:18:46;;;;;;;0.00;0.00;;;9.80;99.90;;;;;;6216183;22;20016;-80
2021/10/30 03:21:13;;;;;;;0.00;0.00;;;9.80;99.90;;;;;;6241309;22;20035;-81
2021/10/30 03:23:40;;;;;;;0.00;0.00;;;9.70;99.90;;;;;;6265807;22;20019;-81
2021/10/30 03:26:07;;;;;;;0.00;0.00;;;9.70;99.90;;;;;;6241828;22;20023;-81
2021/10/30 03:28:33;;;;;;;0.00;0.00;;;9.70;99.90;;;;;;6241170;22;20012;-81
2021/10/30 03:31:00;;;;;;;0.00;0.00;;;9.80;99.90;;;;;;6291843;22;20457;-81
2021/10/30 03:33:27;;;;;;;0.08;0.08;;;9.70;99.90;;;;;;6266537;22;20019;-81
2021/10/30 03:35:54;;;;;;;0.03;0.03;;;9.70;99.90;;;;;;6241098;22;20015;-81
2021/10/30 03:38:20;;;;;;;0.00;0.00;;;9.70;99.90;;;;;;6241432;22;20090;-81
2021/10/30 03:40:47;;;;;;;0.00;0.00;;;9.70;99.90;;;;;;6241134;22;20468;-81
2021/10/30 03:43:14;;;;;;;0.00;0.00;;;9.70;99.90;;;;;;6241592;22;20066;-81
2021/10/30 03:45:41;;;;;;;0.00;0.00;;;9.70;99.90;;;;;;6241220;22;20081;-81
2021/10/30 03:48:08;;;;;;;0.00;0.00;;;9.70;99.90;;;;;;6271180;22;20026;-81
2021/10/30 03:50:38;;;;;;;0.00;0.00;;;9.70;99.90;;;;;;6297239;22;20019;-81
2021/10/30 03:53:05;;;;;;;0.03;0.03;;;9.70;99.90;;;;;;6272233;22;20015;-81
2021/10/30 03:55:33;;;;;;;0.00;0.00;;;9.70;99.90;;;;;;6271983;22;20094;-81
2021/10/30 03:58:00;;;;;;;0.00;0.00;;;9.70;99.90;;;;;;6296861;22;20098;-81
2021/10/30 04:00:27;;;;;;;0.00;0.00;;;9.60;99.90;;;;;;6296939;22;20412;-81
2021/10/30 04:02:53;;;;;;;0.00;0.00;;;9.80;99.90;;;;;;6271478;22;20038;-81
2021/10/30 04:05:20;;;;;;;0.00;0.00;;;9.60;99.90;;;;;;6271831;22;20099;-81
2021/10/30 04:07:47;;;;;;;0.00;0.00;;;9.60;99.90;;;;;;6271778;22;20011;-80
2021/10/30 04:10:14;;;;;;;0.00;0.00;;;9.60;99.90;;;;;;6246899;22;20094;-81
2021/10/30 04:12:41;;;;;;;0.00;0.00;;;9.60;99.90;;;;;;6246296;22;20015;-81
2021/10/30 04:15:09;;;;;;;0.03;0.03;;;9.60;99.90;;;;;;6297012;22;20411;-81
2021/10/30 04:17:36;;;;;;;0.10;0.10;;;9.60;99.90;;;;;;6297322;22;20084;-81
2021/10/30 04:20:03;;;;;;;0.65;0.20;;;9.60;99.90;;;;;;6245893;22;20394;-81
2021/10/30 04:22:30;;;;;;;0.00;0.00;;;9.60;99.90;;;;;;6271927;22;20467;-81
2021/10/30 04:24:58;;;;;;;0.00;0.00;;;9.60;99.90;;;;;;6246455;22;20015;-81
2021/10/30 04:27:25;;;;;;;0.13;0.13;;;9.60;99.90;;;;;;6247187;22;20034;-81
2021/10/30 04:29:51;;;;;;;0.00;0.00;;;9.60;99.90;;;;;;6322203;22;20337;-81
2021/10/30 04:32:18;;;;;;;0.00;0.00;;;9.60;99.90;;;;;;6297101;22;20086;-81
2021/10/30 04:34:48;;;;;;;0.00;0.00;;;9.60;99.90;;;;;;6271356;22;20515;-81
2021/10/30 04:37:15;;;;;;;0.00;0.00;;;9.60;99.90;;;;;;6248255;22;20145;-81
2021/10/30 04:39:47;;;;;;;0.05;0.05;;;9.60;99.90;;;;;;6321883;22;20015;-81
2021/10/30 04:42:16;;;;;;;0.00;0.00;;;9.60;99.90;;;;;;6271878;22;20336;-81
2021/10/30 04:44:43;;;;;;;0.00;0.00;;;9.70;99.90;;;;;;6272844;22;20054;-81
2021/10/30 04:47:10;;;;;;;0.00;0.00;;;9.60;99.90;;;;;;6298793;22;20099;-81
2021/10/30 04:49:38;;;;;;;0.10;0.10;;;9.60;99.90;;;;;;6298542;22;20804;-80
2021/10/30 04:52:06;;;;;;;0.08;0.08;;;9.60;99.90;;;;;;6323831;22;20015;-81
2021/10/30 04:54:34;;;;;;;0.00;0.00;;;9.60;99.90;;;;;;6248353;22;20498;-81
2021/10/30 04:57:00;;;;;;;0.10;0.03;;;9.60;99.90;;;;;;6298032;22;20023;-81
2021/10/30 04:59:27;;;;;;;0.00;0.00;;;9.60;99.90;;;;;;6298576;22;20015;-81
2021/10/30 05:01:54;;;;;;;0.00;0.00;;;9.70;99.90;;;;;;6247888;22;20026;-81
2021/10/30 05:04:20;;;;;;;0.00;0.00;;;9.70;99.90;;;;;;6324192;22;20103;-81
2021/10/30 05:06:47;;;;;;;0.00;0.00;;;9.70;99.90;;;;;;6247957;22;20015;-81
2021/10/30 05:09:14;;;;;;;0.10;0.10;;;9.70;99.90;;;;;;6273402;22;20384;-81
2021/10/30 05:11:41;;;;;;;0.00;0.00;;;9.70;99.90;;;;;;6273322;22;20437;-81
2021/10/30 05:14:07;;;;;;;0.00;0.00;;;9.70;99.90;;;;;;6272866;22;20444;-81
2021/10/30 05:16:34;;;;;;;0.08;0.08;;;9.70;99.90;;;;;;6273149;22;20015;-81
2021/10/30 05:19:01;;;;;;;0.00;0.00;;;9.70;99.90;;;;;;6297980;22;20336;-81
2021/10/30 05:21:28;;;;;;;0.00;0.00;;;9.70;99.90;;;;;;6298195;22;20102;-81
2021/10/30 05:23:56;;;;;;;0.10;0.10;;;9.80;99.90;;;;;;6272581;22;20129;-81
2021/10/30 05:26:26;;;;;;;0.00;0.00;;;9.80;99.90;;;;;;6298207;22;20348;-81
2021/10/30 05:28:53;;;;;;;0.08;0.08;;;9.80;99.90;;;;;;6247814;22;20170;-80
2021/10/30 05:31:20;;;;;;;0.00;0.00;;;9.80;99.90;;;;;;6298509;22;20019;-81
2021/10/30 05:33:46;;;;;;;0.00;0.00;;;9.80;99.90;;;;;;6248278;22;20489;-81
2021/10/30 05:36:13;;;;;;;0.00;0.00;;;9.70;99.90;;;;;;6248021;22;20023;-81
2021/10/30 05:38:50;;;;;;;0.00;0.00;;;9.80;99.90;;;;;;6298604;22;20095;-81
2021/10/30 05:41:17;;;;;;;0.00;0.00;;;9.80;99.90;;;;;;6300585;22;20019;-81
2021/10/30 05:43:44;;;;;;;0.00;0.00;;;9.80;99.90;;;;;;6298191;22;20015;-81
2021/10/30 05:46:11;;;;;;;0.00;0.00;;;9.90;99.90;;;;;;6297773;22;20086;-81
2021/10/30 05:48:38;;;;;;;0.30;0.17;;;9.90;99.90;;;;;;6272905;22;20081;-81
2021/10/30 05:51:05;;;;;;;0.00;0.00;;;10.00;99.90;;;;;;6247670;22;20015;-81
2021/10/30 05:53:32;;;;;;;0.10;0.10;;;10.00;99.90;;;;;;6247184;22;20077;-81
2021/10/30 05:55:59;;;;;;;0.00;0.00;;;10.00;99.90;;;;;;6297562;22;20046;-81
2021/10/30 05:58:26;;;;;;;0.00;0.00;;;10.10;99.90;;;;;;6323704;22;20026;-81
2021/10/30 06:00:53;;;;;;;0.10;0.10;;;10.00;99.90;;;;;;6297703;22;20020;-81
2021/10/30 06:03:20;;;;;;;0.00;0.00;;;10.10;99.90;;;;;;6247701;22;20014;-81
2021/10/30 06:05:46;;;;;;;0.10;0.10;;;10.10;99.90;;;;;;6247476;22;20015;-81
2021/10/30 06:08:13;;;;;;;0.00;0.00;;;10.10;99.90;;;;;;6247225;22;20138;-81
2021/10/30 06:10:40;;;;;;;0.00;0.00;;;10.10;99.90;;;;;;6272683;22;20118;-81
2021/10/30 06:13:07;;;;;;;0.00;0.00;;;10.10;99.90;;;;;;6272743;22;20073;-81
2021/10/30 06:15:33;;;;;;;0.00;0.00;;;10.10;99.90;;;;;;6247577;22;20019;-81
2021/10/30 06:18:00;;;;;;;0.05;0.05;;;10.10;99.90;;;;;;6246962;22;20057;-81
2021/10/30 06:20:27;;;;;;;0.00;0.00;;;10.10;99.90;;;;;;6247259;22;20049;-81
2021/10/30 06:22:53;;;;;;;0.00;0.00;;;10.10;99.90;;;;;;6272048;22;20023;-80
2021/10/30 06:25:20;;;;;;;0.20;0.20;;;10.10;99.90;;;;;;6271866;22;20077;-81
2021/10/30 06:27:47;;;;;;;0.10;0.10;;;10.10;99.90;;;;;;6322705;22;20015;-81
2021/10/30 06:30:14;;;;;;;0.00;0.00;;;10.20;99.90;;;;;;6296898;22;20026;-81
2021/10/30 06:32:40;;;;;;;0.00;0.00;;;10.20;99.90;;;;;;6247353;22;20022;-81
2021/10/30 06:35:09;;;;;;;0.13;0.10;;;10.20;99.90;;;;;;6296716;22;20042;-81
2021/10/30 06:37:38;;;;;;;0.00;0.00;;;10.20;99.90;;;;;;6296902;22;20022;-81
2021/10/30 06:40:10;;;;;;;0.05;0.05;;;10.20;99.90;;;;;;6296567;22;20022;-81
2021/10/30 06:42:37;;;;;;;0.00;0.00;;;10.20;99.90;;;;;;6322368;22;20046;-80
2021/10/30 06:45:05;;;;;;;0.22;0.10;;;10.20;99.90;;;;;;6296792;22;20015;-81
2021/10/30 06:47:32;;;;;;;0.10;0.10;;;10.20;99.90;;;;;;6297913;22;20015;-81
2021/10/30 06:50:00;;;;;;;0.03;0.03;;;10.20;99.90;;;;;;6296643;22;20020;-81
2021/10/30 06:52:37;;;;;;;0.00;0.00;;;10.20;99.90;;;;;;6297400;22;20012;-81
2021/10/30 06:55:06;;;;;;;0.00;0.00;;;10.20;99.90;;;;;;6296986;22;20019;-81
2021/10/30 06:57:33;;;;;;;0.00;0.00;;;10.30;99.90;;;;;;6297344;22;20023;-82
2021/10/30 07:00:00;;;;;;;0.00;0.00;;;10.30;99.90;;;;;;6297016;22;20341;-80
2021/10/30 07:02:28;;;;;;;0.05;0.05;;;10.30;99.90;;;;;;6297398;22;20055;-81
2021/10/30 07:04:56;;;;;;;0.10;0.10;;;10.30;99.90;;;;;;6322283;22;20317;-81
2021/10/30 07:07:22;;;;;;;0.38;0.38;;;10.30;99.90;;;;;;6297292;22;20511;-81
2021/10/30 07:09:49;;;;;;;0.17;0.17;;;10.30;99.90;;;;;;6247228;22;20054;-81
2021/10/30 07:12:16;;;;;;;0.00;0.00;;;10.30;99.90;;;;;;6297141;22;20011;-81
2021/10/30 07:14:42;;;;;;;0.20;0.20;;;10.30;99.90;;;;;;6297474;22;20030;-81
2021/10/30 07:17:09;;;;;;;0.00;0.00;;;10.40;99.90;;;;;;6297196;22;20069;-83
2021/10/30 07:19:36;;;;;;;0.00;0.00;;;10.50;99.90;;;;;;6246936;22;20019;-83
2021/10/30 07:22:02;;;;;;;0.00;0.00;;;10.40;99.90;;;;;;6271729;22;20062;-84
2021/10/30 07:24:29;;;;;;;0.00;0.00;;;10.40;99.90;;;;;;6322510;22;20015;-83
2021/10/30 07:26:56;;;;;;;0.00;0.00;;;10.40;99.90;;;;;;6247189;22;20510;-85
2021/10/30 07:29:23;;;;;;;0.00;0.00;;;10.50;99.90;;;;;;6246683;22;20452;-82
2021/10/30 07:31:50;;;;;;;0.00;0.00;;;10.50;99.90;;;;;;6246904;22;20090;-83
2021/10/30 07:34:16;;;;;;;0.10;0.10;;;10.50;99.90;;;;;;6296982;22;20076;-82
2021/10/30 07:36:43;;;;;;;0.00;0.00;;;10.50;99.90;;;;;;6271943;22;20027;-83
2021/10/30 07:39:10;;;;;;;0.00;0.00;;;10.50;99.90;;;;;;6271329;22;20026;-82
2021/10/30 07:41:36;;;;;;;0.03;0.03;;;10.60;99.90;;;;;;6297099;22;20614;-83
2021/10/30 07:44:04;;;;;;;0.03;0.03;;;10.60;99.90;;;;;;6300501;22;20466;-83
2021/10/30 07:46:31;;;;;;;0.00;0.00;;;10.60;99.90;;;;;;6253674;22;20015;-83
2021/10/30 07:48:58;;;;;;;0.00;0.00;;;10.60;99.90;;;;;;6248334;22;20019;-83
2021/10/30 07:51:24;;;;;;;0.10;0.10;;;10.60;99.90;;;;;;6246536;22;20076;-83
2021/10/30 07:53:51;;;;;;;0.00;0.00;;;10.60;99.90;;;;;;6271992;22;20097;-83
2021/10/30 07:56:18;;;;;;;0.00;0.00;;;10.60;99.90;;;;;;6271630;22;20016;-82
2021/10/30 07:58:45;;;;;;;0.00;0.00;;;10.60;99.90;;;;;;6297374;22;20347;-84
2021/10/30 08:01:12;;;;;;;0.03;0.03;;;10.60;99.90;;;;;;6246460;22;20097;-82
2021/10/30 08:03:39;;;;;;;0.00;0.00;;;10.60;99.90;;;;;;6297022;22;20038;-83
2021/10/30 08:06:06;;;;;;;0.10;0.10;;;10.60;99.90;;;;;;6271579;22;20011;-82
2021/10/30 08:08:33;;;;;;;0.60;0.17;;;10.60;99.90;;;;;;6271793;22;20015;-84
2021/10/30 08:11:01;;;;;;;0.00;0.00;;;10.60;99.90;;;;;;6272050;22;20434;-83
2021/10/30 08:13:28;;;;;;;0.00;0.00;;;10.60;99.90;;;;;;6296990;22;20015;-82
2021/10/30 08:15:55;;;;;;;0.00;0.00;;;10.60;99.90;;;;;;6271937;22;20090;-82
2021/10/30 08:18:23;;;;;;;0.38;0.17;;;10.50;99.90;;;;;;6297699;22;20341;-82
2021/10/30 08:20:50;;;;;;;0.00;0.00;;;10.50;99.90;;;;;;6273546;22;20015;-82
2021/10/30 08:23:17;;;;;;;0.10;0.10;;;10.50;99.90;;;;;;6273551;22;20069;-82
2021/10/30 08:25:44;;;;;;;0.00;0.00;;;10.60;99.90;;;;;;6273844;22;20348;-82
2021/10/30 08:28:10;;;;;;;0.00;0.00;;;10.60;99.90;;;;;;6273228;22;20023;-82
2021/10/30 08:30:37;;;;;;;0.00;0.00;;;10.50;99.90;;;;;;6299095;22;20022;-82
2021/10/30 08:33:04;;;;;;;0.10;0.10;;;10.60;99.90;;;;;;6298913;22;20094;-82
2021/10/30 08:35:30;;;;;;;0.00;0.00;;;10.50;99.90;;;;;;6298618;22;20112;-82
2021/10/30 08:37:57;;;;;;;0.00;0.00;;;10.50;99.90;;;;;;6298968;22;20011;-83
2021/10/30 08:40:24;;;;;;;0.00;0.00;;;10.50;99.90;;;;;;6248245;22;20053;-82
2021/10/30 08:42:51;;;;;;;0.00;0.00;;;10.60;99.90;;;;;;6248754;22;20022;-82
2021/10/30 08:45:19;;;;;;;0.10;0.10;;;10.60;99.90;;;;;;6247639;22;20539;-81
2021/10/30 08:47:47;;;;;;;0.03;0.03;;;10.60;99.90;;;;;;6323927;22;20015;-81
2021/10/30 08:50:15;;;;;;;0.20;0.20;;;10.60;99.90;;;;;;6298270;22;20026;-81
2021/10/30 08:52:42;;;;;;;0.00;0.00;;;10.60;99.90;;;;;;6298668;22;20015;-82
2021/10/30 08:55:09;;;;;;;0.00;0.00;;;10.60;99.90;;;;;;6273160;22;20018;-81
2021/10/30 08:57:37;;;;;;;0.00;0.00;;;10.60;99.90;;;;;;6298147;22;20030;-81
2021/10/30 09:00:25;;;;;;;0.00;0.00;;;10.60;99.90;;;;;;6298861;22;20030;-81
2021/10/30 09:03:01;;;;;;;0.00;0.00;;;10.60;99.90;;;;;;6298535;22;20519;-82
2021/10/30 09:05:31;;;;;;;0.00;0.00;;;10.60;99.90;;;;;;6297851;22;20016;-82
2021/10/30 09:08:03;;;;;;;0.00;0.00;;;10.70;99.90;;;;;;6274821;22;20015;-82
2021/10/30 09:10:39;;;;;;;0.20;0.20;;;10.70;99.90;;;;;;6298214;22;20046;-81
2021/10/30 09:13:10;;;;;;;0.00;0.00;;;10.70;99.90;;;;;;6298495;22;20021;-82
2021/10/30 09:15:37;;;;;;;0.00;0.00;;;10.70;99.90;;;;;;6297770;22;20019;-81
2021/10/30 09:18:20;;;;;;;0.00;0.00;;;10.70;99.90;;;;;;6323832;22;20027;-82
2021/10/30 09:20:48;;;;;;;0.00;0.00;;;10.70;99.90;;;;;;6298565;22;20026;-82
2021/10/30 09:23:16;;;;;;;0.00;0.00;;;10.80;99.90;;;;;;6323678;22;20023;-81
2021/10/30 09:26:14;;;;;;;0.00;0.00;;;10.80;99.90;;;;;;6298439;22;20019;-82
2021/10/30 09:28:50;;;;;;;0.00;0.00;;;10.90;99.90;;;;;;6297180;22;20085;-81
2021/10/30 09:31:18;;;;;;;0.10;0.10;;;10.90;99.90;;;;;;6299162;22;20164;-81
2021/10/30 09:34:08;;;;;;;0.00;0.00;;;11.00;99.90;;;;;;6273948;22;20347;-82
2021/10/30 09:36:37;;;;;;;0.00;0.00;;;11.00;99.90;;;;;;6282840;22;20019;-81
2021/10/30 09:39:13;;;;;;;0.10;0.10;;;11.10;99.90;;;;;;6298861;22;20058;-81
2021/10/30 09:41:45;;;;;;;0.10;0.10;;;11.10;99.90;;;;;;6298005;22;20057;-81
2021/10/30 09:44:22;;;;;;;0.10;0.10;;;11.20;99.90;;;;;;6298560;22;20015;-81
2021/10/30 09:46:53;;;;;;;0.00;0.00;;;11.20;99.90;;;;;;6298414;22;20047;-82
2021/10/30 09:49:21;;;;;;;0.00;0.00;;;11.30;99.90;;;;;;6297514;22;20019;-81
2021/10/30 09:51:53;;;;;;;0.00;0.00;;;11.30;99.90;;;;;;6297916;22;20011;-81
2021/10/30 09:54:35;;;;;;;0.00;0.00;;;11.30;99.90;;;;;;6297241;22;20015;-80
2021/10/30 09:57:04;;;;;;;0.08;0.08;;;11.40;99.90;;;;;;6323418;22;20455;-80
2021/10/30 09:59:37;;;;;;;0.00;0.00;;;11.40;99.90;;;;;;6272749;22;20378;-81
2021/10/30 10:02:06;;;;;;;0.00;0.00;;;11.40;99.90;;;;;;6323498;22;20102;-81
2021/10/30 10:04:36;;;;;;;0.03;0.03;;;11.50;99.90;;;;;;6323185;22;20352;-81
2021/10/30 10:07:05;;;;;;;0.00;0.00;;;11.50;99.90;;;;;;6298405;22;20106;-81
2021/10/30 10:09:32;;;;;;;0.00;0.00;;;11.60;99.90;;;;;;6297709;22;20015;-81
2021/10/30 10:12:00;;;;;;;0.00;0.00;;;11.70;99.90;;;;;;6297904;22;20348;-81
2021/10/30 10:14:28;;;;;;;0.00;0.00;;;11.70;99.90;;;;;;6271993;22;20015;-81
2021/10/30 10:16:56;;;;;;;0.00;0.00;;;11.80;99.90;;;;;;6297630;22;20026;-81
2021/10/30 10:19:23;;;;;;;0.00;0.00;;;11.80;99.90;;;;;;6297130;22;20339;-82
2021/10/30 10:21:52;;;;;;;0.00;0.00;;;11.90;99.90;;;;;;6272940;22;20022;-82
2021/10/30 10:24:28;;;;;;;0.00;0.00;;;12.00;99.90;;;;;;6297315;22;20019;-82
2021/10/30 10:26:55;;;;;;;0.75;0.32;;;12.10;99.90;;;;;;6297705;22;20150;-82
2021/10/30 10:29:35;;;;;;;0.05;0.05;;;12.20;99.90;;;;;;6297680;22;20093;-82
2021/10/30 10:32:08;;;;;;;0.00;0.00;;;12.30;99.90;;;;;;6297647;22;20095;-82
2021/10/30 10:34:37;;;;;;;0.00;0.00;;;12.30;99.90;;;;;;6297298;22;20094;-82
2021/10/30 10:37:24;;;;;;;0.00;0.00;;;12.30;99.90;;;;;;6297397;22;20026;-82
2021/10/30 10:39:57;;;;;;;0.00;0.00;;;12.30;99.90;;;;;;6272027;22;20019;-82
2021/10/30 10:42:36;;;;;;;0.00;0.00;;;12.30;99.90;;;;;;6297081;22;20019;-80
2021/10/30 10:45:05;;;;;;;0.00;0.00;;;12.40;99.90;;;;;;6323067;22;20022;-81
2021/10/30 10:47:35;;;;;;;0.10;0.10;;;12.40;99.90;;;;;;6297424;22;20110;-82
2021/10/30 10:50:35;;;;;;;0.08;0.08;;;12.40;99.90;;;;;;6297673;22;20026;-82
2021/10/30 10:53:07;;;;;;;0.05;0.05;;;12.40;99.90;;;;;;6297018;22;20511;-83
2021/10/30 10:55:36;;;;;;;0.00;0.00;;;12.00;99.90;;;;;;6296995;22;20156;-81
2021/10/30 10:58:08;;;;;;;0.10;0.10;;;12.40;99.90;;;;;;6297460;22;20077;-82
2021/10/30 11:00:36;;;;;;;0.00;0.00;;;12.50;99.90;;;;;;6297430;22;20339;-83
2021/10/30 11:03:03;;;;;;;0.00;0.00;;;12.40;99.90;;;;;;6298126;22;20054;-83
2021/10/30 11:05:32;;;;;;;0.03;0.03;;;12.30;99.90;;;;;;6271741;22;20547;-83
2021/10/30 11:07:58;;;;;;;0.00;0.00;;;12.30;99.90;;;;;;6272374;22;20008;-82
2021/10/30 11:10:30;;;;;;;0.00;0.00;;;12.30;99.90;;;;;;6323314;22;20015;-82
2021/10/30 11:13:00;;;;;;;0.00;0.00;;;12.20;99.90;;;;;;6297036;22;20050;-82
2021/10/30 11:15:46;;;;;;;0.00;0.00;;;12.20;99.90;;;;;;6297276;22;20098;-82
2021/10/30 11:21:13;;;;;;;0.00;0.00;;;12.20;99.90;;;;;;6299063;22;20444;-82
2021/10/30 11:23:46;;;;;;;0.20;0.20;;;12.20;99.90;;;;;;6322416;22;20015;-81
2021/10/30 11:26:26;;;;;;;0.00;0.00;;;12.20;99.90;;;;;;6297499;22;20015;-82
2021/10/30 11:29:12;;;;;;;0.00;0.00;;;12.20;99.90;;;;;;6297358;22;20042;-82
2021/10/30 11:31:39;;;;;;;;;;;12.20;99.90;;;;;;6322986;22;20015;-82
2021/10/30 11:34:11;;;;;;;0.00;0.00;;;12.20;99.90;;;;;;6297550;22;20381;-82
2021/10/30 11:36:42;;;;;;;0.10;0.10;;;12.20;99.90;;;;;;6297506;22;20019;-82
2021/10/30 11:39:11;;;;;;;0.00;0.00;;;12.20;99.90;;;;;;6297506;22;20026;-82
2021/10/30 11:41:39;;;;;;;0.00;0.00;;;12.20;99.90;;;;;;6272255;22;20026;-82
2021/10/30 11:44:12;;;;;;;0.00;0.00;;;12.20;99.90;;;;;;6297061;22;20871;-82
2021/10/30 11:46:45;;;;;;;0.00;0.00;;;12.30;99.90;;;;;;6297170;22;20084;-82
2021/10/30 11:49:29;;;;;;;0.00;0.00;;;12.30;99.90;;;;;;6296986;22;20020;-82
2021/10/30 11:52:14;;;;;;;0.00;0.00;;;12.30;99.90;;;;;;6272308;22;20340;-82
2021/10/30 11:54:40;;;;;;;0.00;0.00;;;12.30;99.90;;;;;;6298802;22;20047;-82
2021/10/30 11:57:12;;;;;;;0.05;0.00;;;12.30;99.90;;;;;;6299532;22;20019;-82
2021/10/30 11:59:44;;;;;;;0.10;0.10;;;12.30;99.90;;;;;;6298642;22;20406;-82
2021/10/30 12:02:15;;;;;;;0.00;0.00;;;12.30;99.90;;;;;;6299035;22;20080;-82
2021/10/30 12:04:43;;;;;;;0.00;0.00;;;12.30;99.90;;;;;;6273509;22;20015;-82
2021/10/30 12:07:14;;;;;;;0.00;0.00;;;12.30;99.90;;;;;;6299024;22;20121;-82
2021/10/30 12:09:43;;;;;;;0.08;0.05;;;12.20;99.90;;;;;;6298651;22;20049;-82
2021/10/30 12:12:11;;;;;;;0.00;0.00;;;12.30;99.90;;;;;;6298403;22;20019;-82
2021/10/30 12:14:40;;;;;;;0.08;0.00;;;12.20;99.90;;;;;;6298437;22;20019;-82
2021/10/30 12:17:12;;;;;;;0.00;0.00;;;12.30;99.90;;;;;;6299037;22;20132;-82
2021/10/30 12:19:43;;;;;;;0.10;0.10;;;12.30;99.90;;;;;;6298687;22;20325;-82
2021/10/30 12:22:17;;;;;;;0.00;0.00;;;12.30;99.90;;;;;;6299333;22;20019;-82
2021/10/30 12:24:46;;;;;;;0.00;0.00;;;12.30;99.90;;;;;;6324038;22;20747;-82
2021/10/30 12:27:14;;;;;;;0.00;0.00;;;12.40;99.90;;;;;;6274286;22;20017;-82
2021/10/30 12:29:44;;;;;;;0.00;0.00;;;12.40;99.90;;;;;;6298336;22;20011;-82
2021/10/30 12:32:13;;;;;;;0.00;0.00;;;12.40;99.90;;;;;;6298740;22;20098;-82
2021/10/30 12:34:43;;;;;;;1.30;0.28;;;12.40;99.90;;;;;;6298589;22;20019;-82
2021/10/30 12:37:13;;;;;;;0.00;0.00;;;12.40;99.90;;;;;;6324200;22;20031;-83
2021/10/30 12:39:40;;;;;;;0.00;0.00;;;12.40;99.90;;;;;;6298297;22;20141;-82
2021/10/30 12:42:10;;;;;;;0.00;0.00;;;12.40;99.90;;;;;;6273711;22;20019;-82
2021/10/30 12:44:39;;;;;;;0.00;0.00;;;12.50;99.90;;;;;;6298387;22;20019;-82
2021/10/30 12:47:14;;;;;;;0.00;0.00;;;12.40;99.90;;;;;;6298657;22;20098;-82
2021/10/30 12:49:43;;;;;;;0.00;0.00;;;12.50;99.90;;;;;;6298117;22;20098;-82
2021/10/30 12:52:13;;;;;;;0.00;0.00;;;12.40;99.90;;;;;;6273441;22;20090;-82
2021/10/30 12:54:50;;;;;;;0.20;0.17;;;12.40;99.90;;;;;;6273386;22;20015;-82
2021/10/30 12:57:25;;;;;;;0.00;0.00;;;12.40;99.90;;;;;;6275561;22;20019;-83
2021/10/30 13:00:15;;;;;;;0.00;0.00;;;12.40;99.90;;;;;;6297917;22;20015;-82
2021/10/30 13:02:43;;;;;;;0.00;0.00;;;12.50;99.90;;;;;;6323365;22;20019;-82